Time;durP1;ratioP1;P1;durP2;ratioP2;P2;SDS_P1;SDS_P2;PMS_P1;PMS_P2;Temp;Humidity;BMP_temperature;BMP_pressure;BME280_temperature;BME280_humidity;BME280_pressure;Samples;Min_cycle;Max_cycle;Signal;HPM_P1;HPM_P2
2021/09/13 00:02:10;;;;;;;5.10;4.13;;;17.60;99.90;;;;;;5045746;28;20467;-77
2021/09/13 00:04:37;;;;;;;6.77;4.57;;;17.60;99.90;;;;;;5035625;28;20447;-79
2021/09/13 00:07:04;;;;;;;5.20;3.90;;;17.70;99.90;;;;;;5043126;28;20455;-78
2021/09/13 00:09:31;;;;;;;5.77;4.30;;;17.60;99.90;;;;;;5047735;28;20466;-79
2021/09/13 00:11:58;;;;;;;10.20;4.87;;;17.70;99.90;;;;;;5035691;28;20456;-78
2021/09/13 00:14:25;;;;;;;6.50;3.80;;;17.70;99.90;;;;;;5035617;28;20455;-80
2021/09/13 00:16:53;;;;;;;5.67;3.80;;;17.80;99.90;;;;;;5036215;28;20428;-78
2021/09/13 00:19:22;;;;;;;6.67;4.43;;;17.80;99.90;;;;;;5035057;28;20526;-78
2021/09/13 00:21:49;;;;;;;7.47;4.17;;;17.70;99.90;;;;;;5035119;28;20480;-77
2021/09/13 00:24:16;;;;;;;6.17;4.17;;;17.60;99.90;;;;;;5034947;28;20462;-80
2021/09/13 00:26:43;;;;;;;5.47;4.27;;;17.60;99.90;;;;;;5034328;28;20465;-77
2021/09/13 00:29:09;;;;;;;8.43;5.10;;;17.60;99.90;;;;;;5054220;28;20503;-77
2021/09/13 00:31:37;;;;;;;7.20;3.97;;;17.50;99.90;;;;;;5035698;28;20481;-77
2021/09/13 00:34:05;;;;;;;6.10;4.37;;;17.50;99.90;;;;;;5037353;28;20459;-78
2021/09/13 00:36:32;;;;;;;7.53;4.77;;;17.50;99.90;;;;;;5036721;28;20447;-78
2021/09/13 00:38:59;;;;;;;7.70;4.50;;;17.60;99.90;;;;;;5034623;28;20546;-78
2021/09/13 00:41:26;;;;;;;5.57;4.10;;;17.60;99.90;;;;;;5035350;28;21021;-78
2021/09/13 00:43:53;;;;;;;5.30;3.90;;;17.60;99.90;;;;;;5034523;28;20460;-78
2021/09/13 00:46:20;;;;;;;6.00;4.03;;;17.60;99.90;;;;;;5034442;28;20550;-78
2021/09/13 00:48:47;;;;;;;5.80;4.03;;;17.50;99.90;;;;;;5033667;28;20505;-78
2021/09/13 00:51:15;;;;;;;6.50;4.47;;;17.50;99.90;;;;;;5040991;28;20456;-78
2021/09/13 00:53:42;;;;;;;5.97;3.90;;;17.50;99.90;;;;;;5054874;28;20770;-78
2021/09/13 00:56:09;;;;;;;6.00;4.37;;;17.50;99.90;;;;;;5044229;28;20473;-79
2021/09/13 00:58:37;;;;;;;7.03;3.80;;;17.50;99.90;;;;;;5034789;28;20519;-77
2021/09/13 01:01:05;;;;;;;9.13;4.73;;;17.50;99.90;;;;;;5035253;28;20577;-78
2021/09/13 01:03:32;;;;;;;6.60;4.30;;;17.40;99.90;;;;;;5035222;28;20480;-78
2021/09/13 01:05:59;;;;;;;7.20;4.80;;;17.50;99.90;;;;;;5034470;28;20491;-78
2021/09/13 01:08:28;;;;;;;8.93;4.33;;;17.40;99.90;;;;;;5034223;28;20505;-78
2021/09/13 01:10:56;;;;;;;5.40;3.63;;;17.30;99.90;;;;;;5034156;28;21034;-77
2021/09/13 01:13:22;;;;;;;5.80;3.87;;;17.30;99.90;;;;;;5042108;28;20459;-78
2021/09/13 01:15:49;;;;;;;5.40;3.73;;;17.40;99.90;;;;;;5048914;28;20454;-78
2021/09/13 01:18:16;;;;;;;6.70;4.10;;;17.40;99.90;;;;;;5059385;28;20454;-78
2021/09/13 01:20:43;;;;;;;7.10;3.80;;;17.50;99.90;;;;;;5055376;28;20508;-78
2021/09/13 01:23:11;;;;;;;6.30;4.47;;;17.50;99.90;;;;;;5054783;28;20517;-78
2021/09/13 01:25:39;;;;;;;5.60;4.53;;;17.40;99.90;;;;;;5034735;28;20438;-78
2021/09/13 01:28:06;;;;;;;7.27;3.67;;;17.30;99.90;;;;;;5035898;28;20453;-79
2021/09/13 01:30:33;;;;;;;9.30;3.60;;;17.20;99.90;;;;;;5034969;28;20478;-79
2021/09/13 01:33:00;;;;;;;5.80;4.20;;;17.20;99.90;;;;;;5035306;28;20946;-79
2021/09/13 01:35:27;;;;;;;6.37;4.00;;;17.10;99.90;;;;;;5035119;28;20493;-79
2021/09/13 01:37:54;;;;;;;6.37;4.60;;;17.00;99.90;;;;;;5034281;28;20829;-79
2021/09/13 01:40:20;;;;;;;10.43;4.33;;;17.00;99.90;;;;;;5038544;28;20559;-79
2021/09/13 01:42:49;;;;;;;7.00;4.30;;;17.00;99.90;;;;;;5054746;28;20478;-79
2021/09/13 01:45:15;;;;;;;5.13;4.23;;;17.10;99.90;;;;;;5054525;28;20512;-79
2021/09/13 01:47:43;;;;;;;8.30;4.17;;;17.00;99.90;;;;;;5043049;28;20459;-79
2021/09/13 01:50:10;;;;;;;5.73;4.00;;;17.00;99.90;;;;;;5018299;28;20547;-78
2021/09/13 01:52:37;;;;;;;8.27;4.07;;;17.00;99.90;;;;;;5045707;28;20518;-78
2021/09/13 01:55:04;;;;;;;6.57;4.33;;;16.90;99.90;;;;;;5049153;28;20501;-78
2021/09/13 01:57:31;;;;;;;5.33;4.23;;;16.80;99.90;;;;;;5037116;28;20456;-79
2021/09/13 02:00:00;;;;;;;5.87;4.10;;;16.80;99.90;;;;;;5034690;28;20468;-79
2021/09/13 02:02:26;;;;;;;5.53;4.13;;;16.80;99.90;;;;;;5037731;28;20474;-79
2021/09/13 02:04:53;;;;;;;7.83;4.70;;;16.80;99.90;;;;;;5034600;28;20450;-79
2021/09/13 02:07:20;;;;;;;5.40;4.10;;;16.90;99.90;;;;;;5033874;28;20450;-79
2021/09/13 02:09:47;;;;;;;5.43;4.40;;;17.00;99.90;;;;;;5053219;28;20508;-79
2021/09/13 02:12:14;;;;;;;6.53;4.10;;;17.00;99.90;;;;;;5053991;28;20979;-79
2021/09/13 02:14:41;;;;;;;6.30;4.00;;;17.00;99.90;;;;;;5054003;28;20454;-79
2021/09/13 02:17:09;;;;;;;10.10;5.20;;;16.90;99.90;;;;;;5054517;28;20460;-79
2021/09/13 02:19:36;;;;;;;7.30;4.73;;;16.80;99.90;;;;;;5053140;28;20469;-79
2021/09/13 02:22:04;;;;;;;7.97;4.73;;;16.80;99.90;;;;;;5033239;28;20530;-79
2021/09/13 02:24:30;;;;;;;6.03;4.93;;;16.70;99.90;;;;;;5033872;28;20461;-79
2021/09/13 02:26:58;;;;;;;6.10;4.30;;;16.80;99.90;;;;;;5034318;28;20481;-79
2021/09/13 02:29:25;;;;;;;7.07;4.70;;;16.80;99.90;;;;;;5033659;28;20935;-79
2021/09/13 02:31:52;;;;;;;7.03;4.23;;;16.90;99.90;;;;;;5033298;28;20770;-78
2021/09/13 02:34:20;;;;;;;6.30;4.60;;;16.80;99.90;;;;;;5033533;28;20447;-78
2021/09/13 02:36:47;;;;;;;13.37;4.90;;;16.80;99.90;;;;;;5039921;28;20462;-77
2021/09/13 02:39:13;;;;;;;6.27;3.80;;;16.80;99.90;;;;;;5038791;28;20551;-78
2021/09/13 02:41:40;;;;;;;7.63;3.97;;;16.70;99.90;;;;;;5042513;28;20451;-79
2021/09/13 02:44:07;;;;;;;5.70;4.60;;;16.70;99.90;;;;;;5053093;28;20457;-79
2021/09/13 02:46:34;;;;;;;7.80;5.53;;;16.60;99.90;;;;;;5047049;28;20447;-78
2021/09/13 02:49:01;;;;;;;8.33;5.27;;;16.60;99.90;;;;;;5059682;22;20480;-78
2021/09/13 02:51:29;;;;;;;7.10;4.93;;;16.60;99.90;;;;;;5093329;28;20448;-78
2021/09/13 02:53:56;;;;;;;6.60;4.97;;;16.80;99.90;;;;;;5097333;28;20757;-80
2021/09/13 02:56:23;;;;;;;5.20;4.10;;;16.90;99.90;;;;;;5082502;28;20479;-79
2021/09/13 02:58:49;;;;;;;7.10;5.07;;;16.90;99.90;;;;;;5078107;28;20492;-81
2021/09/13 03:01:16;;;;;;;8.20;4.53;;;16.90;99.90;;;;;;5080569;28;20444;-81
2021/09/13 03:03:43;;;;;;;8.50;4.30;;;16.80;99.90;;;;;;5079138;28;20451;-81
2021/09/13 03:06:10;;;;;;;6.47;4.57;;;16.70;99.90;;;;;;5074144;28;20532;-81
2021/09/13 03:08:38;;;;;;;6.90;4.23;;;16.80;99.90;;;;;;5059255;28;20541;-81
2021/09/13 03:11:08;;;;;;;7.53;5.13;;;16.80;99.90;;;;;;5063065;28;20585;-80
2021/09/13 03:13:34;;;;;;;6.10;4.73;;;16.70;99.90;;;;;;5079379;28;20499;-79
2021/09/13 03:16:01;;;;;;;7.47;5.27;;;16.60;99.90;;;;;;5061775;28;20453;-80
2021/09/13 03:18:28;;;;;;;8.33;4.97;;;16.70;99.90;;;;;;5067286;28;20463;-79
2021/09/13 03:20:55;;;;;;;6.50;4.63;;;16.80;99.90;;;;;;5083885;28;20461;-80
2021/09/13 03:23:22;;;;;;;6.93;4.30;;;16.80;99.90;;;;;;5081517;28;20440;-80
2021/09/13 03:25:50;;;;;;;6.47;4.23;;;16.70;99.90;;;;;;5080845;28;20508;-80
2021/09/13 03:28:17;;;;;;;6.90;4.70;;;16.60;99.90;;;;;;5072793;28;20475;-79
2021/09/13 03:30:44;;;;;;;9.10;5.10;;;16.60;99.90;;;;;;5061144;28;20512;-80
2021/09/13 03:33:11;;;;;;;6.77;5.10;;;16.40;99.90;;;;;;5065034;28;20506;-79
2021/09/13 03:35:37;;;;;;;6.30;5.00;;;16.40;99.90;;;;;;5069408;28;20485;-79
2021/09/13 03:38:04;;;;;;;7.87;5.10;;;16.40;99.90;;;;;;5066655;28;20446;-80
2021/09/13 03:40:31;;;;;;;8.80;4.80;;;16.40;99.90;;;;;;5060108;28;21006;-82
2021/09/13 03:42:59;;;;;;;8.23;5.60;;;16.50;99.90;;;;;;5067262;28;20423;-80
2021/09/13 03:45:26;;;;;;;7.60;5.03;;;16.40;99.90;;;;;;5088659;28;20442;-78
2021/09/13 03:47:53;;;;;;;7.50;5.57;;;16.50;99.90;;;;;;5087195;28;20472;-78
2021/09/13 03:50:20;;;;;;;10.03;5.47;;;16.70;99.90;;;;;;5067311;28;20487;-78
2021/09/13 03:52:46;;;;;;;6.27;5.17;;;16.70;99.90;;;;;;5065768;28;20474;-80
2021/09/13 03:55:13;;;;;;;7.10;5.43;;;16.60;99.90;;;;;;5064890;28;20425;-77
2021/09/13 03:57:40;;;;;;;10.73;5.30;;;16.60;99.90;;;;;;5067083;28;20455;-79
2021/09/13 04:00:09;;;;;;;5.83;4.63;;;16.60;99.90;;;;;;5060497;28;20470;-78
2021/09/13 04:02:37;;;;;;;7.57;4.60;;;16.60;99.90;;;;;;5060150;28;20477;-79
2021/09/13 04:05:05;;;;;;;6.13;5.00;;;16.60;99.90;;;;;;5061734;28;20456;-78
2021/09/13 04:07:36;;;;;;;6.47;5.00;;;16.60;99.90;;;;;;5077962;28;20426;-78
2021/09/13 04:10:21;;;;;;;6.73;5.03;;;16.50;99.90;;;;;;5086136;28;20464;-78
2021/09/13 04:12:47;;;;;;;6.80;5.03;;;16.50;99.90;;;;;;5090053;28;20431;-78
2021/09/13 04:15:16;;;;;;;6.27;5.13;;;16.40;99.90;;;;;;5091211;28;20452;-80
2021/09/13 04:17:43;;;;;;;7.50;4.93;;;16.30;99.90;;;;;;5084373;28;20452;-80
2021/09/13 04:20:11;;;;;;;9.10;5.60;;;16.30;99.90;;;;;;5078654;28;20464;-80
2021/09/13 04:22:38;;;;;;;6.73;5.73;;;16.30;99.90;;;;;;5064888;28;20825;-80
2021/09/13 04:25:05;;;;;;;6.87;4.90;;;16.30;99.90;;;;;;5064137;28;20528;-80
2021/09/13 04:27:32;;;;;;;6.90;5.27;;;16.30;99.90;;;;;;5064210;28;20445;-80
2021/09/13 04:29:59;;;;;;;7.40;5.30;;;16.30;99.90;;;;;;5066052;28;20484;-80
2021/09/13 04:32:28;;;;;;;7.93;4.90;;;16.30;99.90;;;;;;5062953;28;20544;-80
2021/09/13 04:34:54;;;;;;;9.00;5.27;;;16.30;99.90;;;;;;5065750;28;20444;-80
2021/09/13 04:37:21;;;;;;;6.80;5.07;;;16.20;99.90;;;;;;5081204;28;20426;-79
2021/09/13 04:39:48;;;;;;;9.03;5.50;;;16.20;99.90;;;;;;5067050;28;20498;-80
2021/09/13 04:42:15;;;;;;;6.50;4.83;;;16.30;99.90;;;;;;5062270;28;20420;-80
2021/09/13 04:44:42;;;;;;;10.70;5.07;;;16.30;99.90;;;;;;5062932;28;20435;-80
2021/09/13 04:47:08;;;;;;;8.20;5.60;;;16.20;99.90;;;;;;5061994;28;20473;-80
2021/09/13 04:49:37;;;;;;;8.33;5.10;;;16.20;99.90;;;;;;5072869;28;20467;-80
2021/09/13 04:52:04;;;;;;;7.50;5.00;;;16.40;99.90;;;;;;5078184;28;20532;-80
2021/09/13 04:54:31;;;;;;;7.53;4.87;;;16.30;99.90;;;;;;5083963;28;20480;-80
2021/09/13 04:56:58;;;;;;;5.83;4.93;;;16.40;99.90;;;;;;5084198;28;20524;-80
2021/09/13 04:59:24;;;;;;;9.87;5.50;;;16.50;99.90;;;;;;5069469;28;20447;-80
2021/09/13 05:01:51;;;;;;;9.47;5.20;;;16.30;99.90;;;;;;5063818;28;20873;-80
2021/09/13 05:04:18;;;;;;;10.03;4.90;;;16.30;99.90;;;;;;5069684;28;20945;-80
2021/09/13 05:06:46;;;;;;;7.37;4.97;;;16.40;99.90;;;;;;5081251;28;20448;-81
2021/09/13 05:09:13;;;;;;;7.60;5.43;;;16.30;99.90;;;;;;5082004;28;20474;-79
2021/09/13 05:11:41;;;;;;;7.53;5.17;;;16.30;99.90;;;;;;5078501;28;20452;-81
2021/09/13 05:14:08;;;;;;;7.30;5.33;;;16.20;99.90;;;;;;5061944;28;20479;-80
2021/09/13 05:16:35;;;;;;;8.20;5.30;;;16.40;99.90;;;;;;5081592;28;20955;-80
2021/09/13 05:19:02;;;;;;;9.23;5.20;;;16.30;99.90;;;;;;5074272;28;20496;-80
2021/09/13 05:21:29;;;;;;;6.70;4.63;;;16.20;99.90;;;;;;5075429;28;20556;-79
2021/09/13 05:23:58;;;;;;;6.27;5.03;;;16.10;99.90;;;;;;5065319;28;20981;-78
2021/09/13 05:26:25;;;;;;;7.40;5.10;;;16.20;99.90;;;;;;5065236;28;20498;-79
2021/09/13 05:28:52;;;;;;;6.60;4.70;;;16.20;99.90;;;;;;5082331;28;20463;-78
2021/09/13 05:31:18;;;;;;;7.67;5.27;;;16.30;99.90;;;;;;5079991;28;20528;-78
2021/09/13 05:33:45;;;;;;;6.67;4.77;;;16.30;99.90;;;;;;5074522;28;20547;-80
2021/09/13 05:36:12;;;;;;;7.93;5.30;;;16.40;99.90;;;;;;5081668;28;20454;-79
2021/09/13 05:38:39;;;;;;;11.97;6.17;;;16.40;99.90;;;;;;5066461;28;20480;-80
2021/09/13 05:41:07;;;;;;;9.90;5.40;;;16.40;99.90;;;;;;5061623;28;20473;-80
2021/09/13 05:43:35;;;;;;;7.07;5.10;;;16.40;99.90;;;;;;5080923;28;20430;-80
2021/09/13 05:46:01;;;;;;;10.00;4.97;;;16.50;99.90;;;;;;5080847;28;20535;-79
2021/09/13 05:48:28;;;;;;;6.70;5.40;;;16.50;99.90;;;;;;5065256;28;20485;-80
2021/09/13 05:50:55;;;;;;;9.70;5.40;;;16.50;99.90;;;;;;5061536;28;20575;-79
2021/09/13 05:53:22;;;;;;;6.80;5.10;;;16.40;99.90;;;;;;5064865;28;20487;-78
2021/09/13 05:55:49;;;;;;;8.00;5.83;;;16.50;99.90;;;;;;5066591;28;20445;-77
2021/09/13 05:58:17;;;;;;;7.03;5.67;;;16.50;99.90;;;;;;5076502;28;20457;-77
2021/09/13 06:00:44;;;;;;;7.00;5.03;;;16.60;99.90;;;;;;5065256;28;20469;-78
2021/09/13 06:03:11;;;;;;;8.47;5.40;;;16.60;99.90;;;;;;5073829;28;20948;-79
2021/09/13 06:05:38;;;;;;;8.00;5.40;;;16.60;99.90;;;;;;5077387;28;20427;-79
2021/09/13 06:08:05;;;;;;;9.70;5.57;;;16.70;99.90;;;;;;5076134;28;20534;-78
2021/09/13 06:10:32;;;;;;;7.30;6.17;;;16.70;99.90;;;;;;5080842;28;20485;-79
2021/09/13 06:12:58;;;;;;;7.90;5.77;;;16.70;99.90;;;;;;5064283;28;20474;-79
2021/09/13 06:15:27;;;;;;;9.40;5.83;;;16.70;99.90;;;;;;5060196;28;20456;-79
2021/09/13 06:17:53;;;;;;;11.73;5.33;;;16.70;99.90;;;;;;5063862;28;20894;-78
2021/09/13 06:20:23;;;;;;;12.87;6.60;;;16.80;99.90;;;;;;5055696;28;20444;-79
2021/09/13 06:22:50;;;;;;;8.57;6.07;;;16.80;99.90;;;;;;5068517;28;20456;-78
2021/09/13 06:25:17;;;;;;;6.50;5.63;;;16.70;99.90;;;;;;5076581;28;20540;-78
2021/09/13 06:27:44;;;;;;;7.83;6.07;;;16.80;99.90;;;;;;5088846;28;20897;-78
2021/09/13 06:30:12;;;;;;;6.43;5.20;;;17.00;99.90;;;;;;5059003;28;20487;-78
2021/09/13 06:32:40;;;;;;;13.93;6.40;;;17.00;99.90;;;;;;5076874;28;20504;-78
2021/09/13 06:35:08;;;;;;;9.30;5.80;;;17.00;99.90;;;;;;5078208;28;20949;-80
2021/09/13 06:37:35;;;;;;;7.40;6.17;;;17.00;99.90;;;;;;5083305;28;20455;-78
2021/09/13 06:40:02;;;;;;;8.40;5.90;;;16.90;99.90;;;;;;5084822;28;20457;-80
2021/09/13 06:42:30;;;;;;;8.63;6.73;;;16.90;99.90;;;;;;5074047;28;20449;-81
2021/09/13 06:44:57;;;;;;;8.27;6.63;;;17.00;99.90;;;;;;5067471;28;20454;-77
2021/09/13 06:47:43;;;;;;;10.07;7.20;;;17.10;99.90;;;;;;5080344;28;20458;-80
2021/09/13 06:50:14;;;;;;;9.27;6.87;;;17.10;99.90;;;;;;5086070;28;20524;-79
2021/09/13 06:52:40;;;;;;;9.00;7.10;;;17.20;99.90;;;;;;5094022;28;20505;-79
2021/09/13 06:55:08;;;;;;;8.23;6.70;;;17.30;99.90;;;;;;5081174;28;20514;-78
2021/09/13 06:57:35;;;;;;;10.97;7.40;;;17.40;99.90;;;;;;5062044;28;20457;-79
2021/09/13 07:00:03;;;;;;;11.53;7.90;;;17.50;99.90;;;;;;5069784;28;20477;-79
2021/09/13 07:02:31;;;;;;;10.57;7.53;;;17.50;99.90;;;;;;5078378;28;20540;-78
2021/09/13 07:04:58;;;;;;;9.17;7.00;;;17.50;99.90;;;;;;5080877;28;20512;-79
2021/09/13 07:07:26;;;;;;;10.60;7.63;;;17.60;99.90;;;;;;5073875;28;20450;-78
2021/09/13 07:09:53;;;;;;;17.27;12.30;;;17.80;99.90;;;;;;5072379;28;20839;-79
2021/09/13 07:12:21;;;;;;;10.50;8.17;;;17.90;99.90;;;;;;5071398;28;20465;-77
2021/09/13 07:14:48;;;;;;;10.00;8.33;;;17.90;99.90;;;;;;5068595;28;20458;-77
2021/09/13 07:17:15;;;;;;;16.20;9.30;;;18.00;99.90;;;;;;5052957;28;20451;-77
2021/09/13 07:19:42;;;;;;;10.77;8.53;;;18.00;99.90;;;;;;5053866;28;20485;-77
2021/09/13 07:22:09;;;;;;;10.20;7.97;;;18.10;99.90;;;;;;5070746;28;20504;-77
2021/09/13 07:24:37;;;;;;;10.03;7.67;;;18.20;99.90;;;;;;5068475;28;20448;-78
2021/09/13 07:27:04;;;;;;;9.70;7.40;;;18.20;99.90;;;;;;5056830;28;20559;-78
2021/09/13 07:29:30;;;;;;;12.03;8.13;;;18.30;99.90;;;;;;5070159;28;20475;-78
2021/09/13 07:32:00;;;;;;;10.03;7.97;;;18.50;99.90;;;;;;5071446;28;20514;-78
2021/09/13 07:34:27;;;;;;;10.60;8.00;;;18.60;99.90;;;;;;5076628;28;20472;-78
2021/09/13 07:36:55;;;;;;;20.47;17.40;;;18.60;99.90;;;;;;5080032;28;20461;-79
2021/09/13 07:39:21;;;;;;;9.30;7.73;;;18.70;99.90;;;;;;5082858;28;20551;-78
2021/09/13 07:41:50;;;;;;;9.50;8.50;;;18.80;99.90;;;;;;5066757;28;20466;-78
2021/09/13 07:44:17;;;;;;;9.40;7.67;;;18.90;99.90;;;;;;5074608;28;20464;-78
2021/09/13 07:46:43;;;;;;;12.30;7.87;;;19.00;99.90;;;;;;5069667;28;20450;-78
2021/09/13 07:49:10;;;;;;;10.17;7.33;;;18.90;99.90;;;;;;5079813;28;20500;-79
2021/09/13 07:51:37;;;;;;;9.60;8.60;;;19.00;99.90;;;;;;5069129;28;20468;-79
2021/09/13 07:54:06;;;;;;;11.50;8.17;;;19.00;99.90;;;;;;5064417;28;20494;-78
2021/09/13 07:56:34;;;;;;;12.03;8.60;;;19.10;99.90;;;;;;5067100;28;20589;-79
2021/09/13 07:59:03;;;;;;;11.17;7.37;;;19.20;99.90;;;;;;5083464;28;20430;-79
2021/09/13 08:01:30;;;;;;;9.93;8.00;;;19.40;99.90;;;;;;5066901;28;20451;-78
2021/09/13 08:03:57;;;;;;;10.77;8.03;;;19.50;99.90;;;;;;5059795;28;20948;-78
2021/09/13 08:06:24;;;;;;;8.50;7.40;;;19.40;99.90;;;;;;5066243;28;20459;-78
2021/09/13 08:08:51;;;;;;;12.07;10.77;;;19.40;99.90;;;;;;5079219;28;20479;-78
2021/09/13 08:11:18;;;;;;;12.20;8.43;;;19.50;99.90;;;;;;5087245;28;20493;-78
2021/09/13 08:13:45;;;;;;;9.50;7.10;;;19.60;99.90;;;;;;5088739;28;20486;-78
2021/09/13 08:16:14;;;;;;;8.30;7.10;;;19.70;99.90;;;;;;5083915;28;20825;-78
2021/09/13 08:18:41;;;;;;;8.77;6.57;;;19.80;99.90;;;;;;5080937;28;20456;-78
2021/09/13 08:21:09;;;;;;;8.47;7.10;;;19.70;99.90;;;;;;5061569;28;20482;-78
2021/09/13 08:23:36;;;;;;;9.60;6.83;;;19.70;99.90;;;;;;5075105;28;20448;-80
2021/09/13 08:26:04;;;;;;;8.93;7.10;;;19.70;99.90;;;;;;5065809;28;20452;-79
2021/09/13 08:28:31;;;;;;;10.33;6.50;;;19.80;99.90;;;;;;5063411;28;20462;-80
2021/09/13 08:30:59;;;;;;;11.30;6.70;;;19.90;99.90;;;;;;5063753;28;20605;-82
2021/09/13 08:33:27;;;;;;;10.83;6.30;;;19.90;99.90;;;;;;5067429;28;20558;-78
2021/09/13 08:35:54;;;;;;;9.50;7.20;;;20.10;99.90;;;;;;5078425;28;20495;-79
2021/09/13 08:38:22;;;;;;;13.60;7.30;;;20.10;99.90;;;;;;5096126;28;20451;-78
2021/09/13 08:40:49;;;;;;;14.87;6.13;;;20.20;99.90;;;;;;5078770;28;20475;-79
2021/09/13 08:43:16;;;;;;;10.00;6.30;;;20.20;99.90;;;;;;5080793;28;20461;-79
2021/09/13 08:45:48;;;;;;;7.73;6.70;;;20.30;99.90;;;;;;5079908;28;20973;-79
2021/09/13 08:48:18;;;;;;;7.97;6.13;;;20.40;99.90;;;;;;5061855;28;20441;-83
2021/09/13 08:53:33;;;;;;;8.70;5.70;;;20.60;99.90;;;;;;5053990;28;20432;-77
2021/09/13 08:56:02;;;;;;;8.47;5.43;;;20.80;99.90;;;;;;5053311;28;20478;-76
2021/09/13 08:58:33;;;;;;;9.80;5.57;;;20.90;99.90;;;;;;5044349;28;20987;-77
2021/09/13 09:01:00;;;;;;;10.80;7.90;;;21.00;99.90;;;;;;5025698;28;20520;-77
2021/09/13 09:03:31;;;;;;;7.57;6.00;;;21.00;99.90;;;;;;5016058;28;20508;-76
2021/09/13 09:05:59;;;;;;;9.73;6.27;;;21.10;99.90;;;;;;5027250;28;20532;-80
2021/09/13 09:08:27;;;;;;;8.10;6.53;;;21.10;99.90;;;;;;5031224;28;20446;-79
2021/09/13 09:10:55;;;;;;;8.90;5.50;;;21.10;99.90;;;;;;5017031;28;20869;-78
2021/09/13 09:13:23;;;;;;;10.87;6.00;;;21.30;99.90;;;;;;5036566;28;20465;-78
2021/09/13 09:15:56;;;;;;;8.97;6.10;;;21.40;99.90;;;;;;5036978;28;20461;-78
2021/09/13 09:18:24;;;;;;;9.80;5.93;;;21.40;99.90;;;;;;5038370;28;20537;-77
2021/09/13 09:20:52;;;;;;;10.20;5.43;;;21.50;99.90;;;;;;5023816;28;20857;-78
2021/09/13 09:23:20;;;;;;;10.43;5.83;;;21.60;99.90;;;;;;5034574;28;20449;-77
2021/09/13 09:25:47;;;;;;;8.00;6.20;;;21.70;99.90;;;;;;5033448;28;20458;-78
2021/09/13 09:28:16;;;;;;;8.93;6.10;;;21.80;99.90;;;;;;5035068;28;20457;-78
2021/09/13 09:30:47;;;;;;;7.60;5.70;;;21.80;99.90;;;;;;5034579;28;20485;-77
2021/09/13 09:33:16;;;;;;;6.17;4.77;;;21.90;99.90;;;;;;5039095;28;20449;-78
2021/09/13 09:35:47;;;;;;;8.73;6.00;;;22.00;99.90;;;;;;5034958;28;20458;-77
2021/09/13 09:38:38;;;;;;;8.23;5.70;;;22.10;99.90;;;;;;5034734;28;20849;-77
2021/09/13 09:41:07;;;;;;;7.17;5.30;;;22.00;99.90;;;;;;5014795;28;20477;-76
2021/09/13 09:43:49;;;;;;;7.30;5.33;;;22.10;99.90;;;;;;5013769;28;20497;-77
2021/09/13 09:46:17;;;;;;;8.60;5.30;;;22.20;99.90;;;;;;5034230;28;20445;-78
2021/09/13 09:48:44;;;;;;;8.10;5.47;;;22.20;99.90;;;;;;5035855;28;20536;-78
2021/09/13 09:51:26;;;;;;;8.50;5.57;;;22.30;99.90;;;;;;5037943;28;20489;-78
2021/09/13 09:53:54;;;;;;;7.83;5.30;;;22.50;99.90;;;;;;5037837;28;20809;-78
2021/09/13 09:56:21;;;;;;;7.50;5.30;;;22.60;99.90;;;;;;5037016;28;20481;-77
2021/09/13 09:59:04;;;;;;;7.43;4.93;;;22.50;99.90;;;;;;5042790;28;20485;-78
2021/09/13 10:01:40;;;;;;;7.90;5.30;;;22.40;99.90;;;;;;5040247;28;20556;-78
2021/09/13 10:04:18;;;;;;;11.10;6.60;;;22.50;99.90;;;;;;5047348;28;20436;-77
2021/09/13 10:06:47;;;;;;;9.20;6.00;;;22.60;99.90;;;;;;5042937;28;20461;-77
2021/09/13 10:09:16;;;;;;;7.70;5.90;;;22.70;99.90;;;;;;5026533;28;20545;-79
2021/09/13 10:11:44;;;;;;;7.53;5.87;;;22.70;99.90;;;;;;5014545;28;20493;-77
2021/09/13 10:14:12;;;;;;;8.50;6.17;;;22.80;99.90;;;;;;5012340;28;20458;-77
2021/09/13 10:16:41;;;;;;;7.30;6.00;;;22.80;99.90;;;;;;5013482;28;20485;-77
2021/09/13 10:19:10;;;;;;;8.03;6.00;;;22.80;99.90;;;;;;5034826;28;20544;-79
2021/09/13 10:21:37;;;;;;;7.20;5.13;;;22.90;99.90;;;;;;5033723;28;20553;-78
2021/09/13 10:24:06;;;;;;;6.27;5.00;;;23.00;99.90;;;;;;5030044;28;20529;-78
2021/09/13 10:26:35;;;;;;;7.17;5.90;;;23.00;99.90;;;;;;5037138;28;20788;-79
2021/09/13 10:29:20;;;;;;;6.47;5.23;;;23.10;99.90;;;;;;5035021;28;20477;-78
2021/09/13 10:32:01;;;;;;;6.13;5.33;;;23.20;99.90;;;;;;5033470;28;20805;-78
2021/09/13 10:34:31;;;;;;;7.20;4.87;;;23.30;99.90;;;;;;5013988;28;20431;-78
2021/09/13 10:37:04;;;;;;;7.43;5.83;;;23.40;99.90;;;;;;5025927;28;20478;-78
2021/09/13 10:40:03;;;;;;;8.57;4.80;;;23.50;99.90;;;;;;5028083;28;20453;-78
2021/09/13 10:42:37;;;;;;;8.13;5.40;;;23.60;99.90;;;;;;5032266;28;20505;-78
2021/09/13 10:45:13;;;;;;;7.60;5.20;;;23.60;99.90;;;;;;5032339;28;20443;-78
2021/09/13 10:47:42;;;;;;;6.20;5.30;;;23.60;99.90;;;;;;5031708;28;20467;-78
2021/09/13 10:50:26;;;;;;;6.73;4.80;;;23.60;99.90;;;;;;5033292;28;20944;-78
2021/09/13 10:52:54;;;;;;;6.83;5.40;;;23.60;99.90;;;;;;5032811;28;20465;-78
2021/09/13 10:55:41;;;;;;;7.37;5.77;;;23.60;99.90;;;;;;5025906;28;20569;-78
2021/09/13 10:58:12;;;;;;;8.00;6.50;;;23.60;99.90;;;;;;5023473;28;20445;-78
2021/09/13 11:01:03;;;;;;;7.27;5.10;;;23.60;99.90;;;;;;5032412;28;20473;-78
2021/09/13 11:03:37;;;;;;;7.80;5.23;;;23.70;99.90;;;;;;5033017;28;20528;-78
2021/09/13 11:06:24;;;;;;;7.40;5.10;;;23.50;99.90;;;;;;5033070;28;20429;-78
2021/09/13 11:08:53;;;;;;;6.33;5.70;;;23.50;99.90;;;;;;5032234;28;20441;-78
2021/09/13 11:11:24;;;;;;;6.43;5.27;;;23.70;99.90;;;;;;5029864;28;20489;-78
2021/09/13 11:13:58;;;;;;;7.03;6.13;;;23.70;99.90;;;;;;5030032;28;21053;-78
2021/09/13 11:16:25;;;;;;;8.13;5.63;;;23.80;99.90;;;;;;5031587;28;20526;-78
2021/09/13 11:18:53;;;;;;;8.33;5.60;;;24.00;99.90;;;;;;5032085;28;20453;-78
2021/09/13 11:21:22;;;;;;;6.73;5.27;;;23.90;99.90;;;;;;5033837;28;20473;-78
2021/09/13 11:23:50;;;;;;;7.87;5.47;;;24.10;99.90;;;;;;5036853;28;20467;-78
2021/09/13 11:26:18;;;;;;;7.10;5.40;;;24.30;99.90;;;;;;5036125;28;20465;-78
2021/09/13 11:28:57;;;;;;;7.00;5.83;;;24.30;99.90;;;;;;5036733;28;20779;-77
2021/09/13 11:31:34;;;;;;;6.20;5.23;;;24.30;99.90;;;;;;5034762;28;20485;-78
2021/09/13 11:34:03;;;;;;;7.60;5.50;;;24.20;99.90;;;;;;5036320;28;20433;-78
2021/09/13 11:36:31;;;;;;;7.17;5.40;;;24.30;99.90;;;;;;5035818;28;20468;-78
2021/09/13 11:38:59;;;;;;;8.03;4.60;;;24.30;99.90;;;;;;5035741;28;20461;-78
2021/09/13 11:41:27;;;;;;;8.63;5.20;;;24.30;99.90;;;;;;5037821;28;20565;-78
2021/09/13 11:44:00;;;;;;;5.47;4.43;;;24.30;99.90;;;;;;5041561;28;20453;-78
2021/09/13 11:46:28;;;;;;;5.50;4.47;;;24.30;99.90;;;;;;5036341;28;20485;-78
2021/09/13 11:48:54;;;;;;;6.80;5.37;;;24.40;99.90;;;;;;5036269;28;20449;-78
2021/09/13 11:51:21;;;;;;;5.60;4.80;;;24.50;99.90;;;;;;5035710;28;20507;-77
2021/09/13 11:54:07;;;;;;;6.50;5.60;;;24.50;99.90;;;;;;5036007;28;20456;-77
2021/09/13 11:56:33;;;;;;;6.30;4.60;;;24.60;99.90;;;;;;5037693;28;20488;-78
2021/09/13 11:59:02;;;;;;;7.17;6.07;;;24.70;99.90;;;;;;5036165;28;20501;-78
2021/09/13 12:01:29;;;;;;;8.77;5.70;;;24.80;99.90;;;;;;5036004;28;20480;-78
2021/09/13 12:03:56;;;;;;;7.53;5.20;;;24.70;99.90;;;;;;5025557;28;20476;-78
2021/09/13 12:06:24;;;;;;;5.83;5.00;;;24.80;99.90;;;;;;5019197;28;20458;-78
2021/09/13 12:08:51;;;;;;;6.53;5.20;;;24.80;99.90;;;;;;5032660;28;20460;-78
2021/09/13 12:11:18;;;;;;;5.57;4.93;;;24.80;99.90;;;;;;5038054;28;20475;-78
2021/09/13 12:13:45;;;;;;;6.63;4.90;;;24.80;99.90;;;;;;5037131;28;20453;-76
2021/09/13 12:16:14;;;;;;;5.90;4.90;;;24.80;99.90;;;;;;5035926;28;20456;-77
2021/09/13 12:18:41;;;;;;;6.00;5.17;;;24.80;99.90;;;;;;5035723;28;20457;-77
2021/09/13 12:21:17;;;;;;;6.20;5.40;;;24.80;99.90;;;;;;5032189;28;20857;-77
2021/09/13 12:23:54;;;;;;;8.20;5.03;;;24.80;99.90;;;;;;5036059;28;20433;-78
2021/09/13 12:26:26;;;;;;;5.33;4.70;;;24.90;99.90;;;;;;5036033;28;20845;-77
2021/09/13 12:28:53;;;;;;;6.67;4.90;;;24.80;99.90;;;;;;5035668;28;20449;-77
2021/09/13 12:31:27;;;;;;;5.60;4.63;;;24.80;99.90;;;;;;5035379;28;20473;-78
2021/09/13 12:33:56;;;;;;;6.20;5.00;;;24.60;99.90;;;;;;5033072;28;20463;-77
2021/09/13 12:36:25;;;;;;;9.03;4.10;;;24.70;99.90;;;;;;5037468;28;20480;-78
2021/09/13 12:38:53;;;;;;;7.00;4.87;;;24.80;99.90;;;;;;5034176;28;20512;-78
2021/09/13 12:41:31;;;;;;;5.93;4.67;;;24.90;99.80;;;;;;5035410;28;20469;-79
2021/09/13 12:43:58;;;;;;;6.80;4.60;;;24.90;99.90;;;;;;5035381;28;20465;-79
2021/09/13 12:46:26;;;;;;;5.97;4.67;;;24.90;99.80;;;;;;5035020;28;20444;-78
2021/09/13 12:49:00;;;;;;;6.10;5.10;;;24.80;99.70;;;;;;5035078;28;20458;-78
2021/09/13 12:51:27;;;;;;;5.33;4.47;;;24.90;99.70;;;;;;5035035;28;20579;-78
2021/09/13 12:53:56;;;;;;;7.90;5.30;;;25.20;99.60;;;;;;5037934;28;20457;-78
2021/09/13 12:56:24;;;;;;;5.50;4.57;;;25.10;99.70;;;;;;5036718;28;20442;-77